createdAt,value
2018-10-19T00:04:00.394Z,99.90
2018-10-19T00:09:05.603Z,99.90
2018-10-19T00:14:09.186Z,99.90
2018-10-19T00:19:12.723Z,99.70
2018-10-19T00:24:16.260Z,99.90
2018-10-19T00:29:19.932Z,99.60
2018-10-19T00:34:23.511Z,99.90
2018-10-19T00:39:28.208Z,99.90
2018-10-19T00:44:31.841Z,99.90
2018-10-19T00:49:35.417Z,99.90
2018-10-19T00:54:39.967Z,99.90
2018-10-19T00:59:43.831Z,99.90
2018-10-19T01:04:47.417Z,99.90
2018-10-19T01:09:51.062Z,99.90
2018-10-19T01:14:54.683Z,99.90
2018-10-19T01:19:58.211Z,99.90
2018-10-19T01:25:01.744Z,99.90
2018-10-19T01:30:06.012Z,99.90
2018-10-19T01:35:12.059Z,99.90
2018-10-19T01:40:15.561Z,99.90
2018-10-19T01:45:19.210Z,99.90
2018-10-19T01:50:22.886Z,99.90
2018-10-19T01:55:26.582Z,99.90
2018-10-19T02:00:30.319Z,99.90
2018-10-19T02:05:33.893Z,99.90
2018-10-19T02:10:37.549Z,99.90
2018-10-19T02:15:41.178Z,99.90
2018-10-19T02:20:44.760Z,99.90
2018-10-19T02:25:48.335Z,99.90
2018-10-19T02:30:52.078Z,99.90
2018-10-19T02:35:55.686Z,99.90
2018-10-19T02:40:59.506Z,99.90
2018-10-19T02:46:08.371Z,99.90
2018-10-19T02:51:13.126Z,99.90
2018-10-19T02:56:16.731Z,99.90
2018-10-19T03:01:20.317Z,99.90
2018-10-19T03:06:25.036Z,99.90
2018-10-19T03:11:28.742Z,99.90
2018-10-19T03:16:32.367Z,99.90
2018-10-19T03:21:36.137Z,99.90
2018-10-19T03:26:39.734Z,99.90
2018-10-19T03:31:43.303Z,99.90
2018-10-19T03:36:48.091Z,99.90
2018-10-19T03:41:51.714Z,99.90
2018-10-19T03:46:55.362Z,99.90
2018-10-19T03:51:58.986Z,99.90
2018-10-19T03:57:02.731Z,99.90
2018-10-19T04:02:06.447Z,99.90
2018-10-19T04:07:10.025Z,99.90
2018-10-19T04:12:13.851Z,99.90
2018-10-19T04:17:17.530Z,99.90
2018-10-19T04:22:22.246Z,99.90
2018-10-19T04:27:26.486Z,99.90
2018-10-19T04:32:30.259Z,99.90
2018-10-19T04:37:33.815Z,99.90
2018-10-19T04:42:38.139Z,99.90
2018-10-19T04:47:43.954Z,99.90
2018-10-19T04:52:47.499Z,99.90
2018-10-19T04:57:51.202Z,99.90
2018-10-19T05:02:55.012Z,99.90
2018-10-19T05:07:58.636Z,99.90
2018-10-19T05:13:02.257Z,99.90
2018-10-19T05:18:05.910Z,99.90
2018-10-19T05:23:09.603Z,99.90
2018-10-19T05:28:13.187Z,99.90
2018-10-19T05:33:16.768Z,99.90
2018-10-19T05:38:20.330Z,99.90
2018-10-19T05:43:23.942Z,99.90
2018-10-19T05:48:28.707Z,99.90
2018-10-19T05:53:32.387Z,99.90
2018-10-19T05:58:36.571Z,99.90
2018-10-19T06:03:40.239Z,99.90
2018-10-19T06:08:43.811Z,99.90
2018-10-19T06:13:49.676Z,99.90
2018-10-19T06:18:53.138Z,99.90
2018-10-19T06:23:56.862Z,99.90
2018-10-19T06:29:00.420Z,99.90
2018-10-19T06:34:06.042Z,99.90
2018-10-19T06:39:11.466Z,99.90
2018-10-19T06:44:15.392Z,99.90
2018-10-19T06:49:18.978Z,99.90
2018-10-19T06:54:22.607Z,99.90
2018-10-19T06:59:26.379Z,99.90
2018-10-19T07:04:30.263Z,99.90
2018-10-19T07:09:33.883Z,99.90
2018-10-19T07:14:37.618Z,99.90
2018-10-19T07:19:41.192Z,99.90
2018-10-19T07:24:44.823Z,99.90
2018-10-19T07:29:49.532Z,99.90
2018-10-19T07:34:53.191Z,99.90
2018-10-19T07:39:57.105Z,99.90
2018-10-19T07:45:00.687Z,99.90
2018-10-19T07:50:05.091Z,99.90
2018-10-19T07:55:10.303Z,99.90
2018-10-19T08:00:14.177Z,99.90
2018-10-19T08:05:17.903Z,99.90
2018-10-19T08:10:21.414Z,99.90
2018-10-19T08:15:25.092Z,99.90
2018-10-19T08:20:28.821Z,99.90
2018-10-19T08:25:32.400Z,99.90
2018-10-19T08:30:37.162Z,99.90
2018-10-19T08:35:40.773Z,99.90
2018-10-19T08:40:44.524Z,99.90
2018-10-19T08:45:48.352Z,99.90
2018-10-19T08:50:51.910Z,99.90
2018-10-19T08:55:56.610Z,99.90
2018-10-19T09:01:00.242Z,99.90
2018-10-19T09:06:03.889Z,99.90
2018-10-19T09:11:07.440Z,99.90
2018-10-19T09:16:11.003Z,98.60
2018-10-19T09:21:14.626Z,98.90
2018-10-19T09:26:18.233Z,98.40
2018-10-19T09:31:21.795Z,97.70
2018-10-19T09:36:25.601Z,96.70
2018-10-19T09:41:29.168Z,97.90
2018-10-19T09:46:33.099Z,97.90
2018-10-19T09:51:37.684Z,98.60
2018-10-19T09:56:41.446Z,96.80
2018-10-19T10:01:45.585Z,97.50
2018-10-19T10:06:49.154Z,98.10
2018-10-19T10:11:52.778Z,97.90
2018-10-19T10:16:56.662Z,98.70
2018-10-19T10:22:00.222Z,98.30
2018-10-19T10:27:03.791Z,96.70
2018-10-19T10:32:07.886Z,96.80
2018-10-19T10:37:11.588Z,97.80
2018-10-19T10:42:15.361Z,97.70
2018-10-19T10:47:19.305Z,97.80
2018-10-19T10:52:22.933Z,97.00
2018-10-19T10:57:26.522Z,97.10
2018-10-19T11:02:35.914Z,96.90
2018-10-19T11:07:39.682Z,97.50
2018-10-19T11:12:43.219Z,98.10
2018-10-19T11:17:48.035Z,97.60
2018-10-19T11:22:51.578Z,99.10
2018-10-19T11:27:55.148Z,97.40
2018-10-19T11:32:58.786Z,98.00
2018-10-19T11:38:02.393Z,98.20
2018-10-19T11:43:06.302Z,98.20
2018-10-19T11:48:09.928Z,97.70
2018-10-19T11:53:14.815Z,98.10
2018-10-19T11:58:18.492Z,97.30
2018-10-19T12:03:22.106Z,97.40
2018-10-19T12:08:25.661Z,97.00
2018-10-19T12:13:29.571Z,97.50
2018-10-19T12:18:33.146Z,97.40
2018-10-19T12:23:36.771Z,97.60
2018-10-19T12:28:40.409Z,97.50
2018-10-19T12:33:45.169Z,96.10
2018-10-19T12:38:48.771Z,97.50
2018-10-19T12:43:52.313Z,98.20
2018-10-19T12:48:57.289Z,98.00
2018-10-19T12:54:00.903Z,96.70
2018-10-19T12:59:04.865Z,97.00
2018-10-19T13:04:08.554Z,96.80
2018-10-19T13:09:13.866Z,96.70
2018-10-19T13:14:17.471Z,96.70
2018-10-19T13:19:21.225Z,96.80
2018-10-19T13:24:25.233Z,95.50
2018-10-19T13:29:28.942Z,97.00
2018-10-19T13:34:32.526Z,95.20
2018-10-19T13:39:36.214Z,95.80
2018-10-19T13:44:40.781Z,96.10
2018-10-19T13:49:45.707Z,96.80
2018-10-19T13:54:50.647Z,96.10
2018-10-19T13:59:54.328Z,96.10
2018-10-19T14:04:58.666Z,96.40
2018-10-19T14:10:02.322Z,95.20
2018-10-19T14:15:07.381Z,96.20
2018-10-19T14:20:12.363Z,96.30
2018-10-19T14:25:16.400Z,95.90
2018-10-19T14:30:19.966Z,96.60
2018-10-19T14:35:24.959Z,96.20
2018-10-19T14:40:28.827Z,97.10
2018-10-19T14:45:34.074Z,97.10
2018-10-19T14:50:37.883Z,97.20
2018-10-19T14:55:41.587Z,96.80
2018-10-19T15:00:45.182Z,97.70
2018-10-19T15:05:48.896Z,97.90
2018-10-19T15:10:52.773Z,96.30
2018-10-19T15:15:56.261Z,96.40
2018-10-19T15:20:59.910Z,96.60
2018-10-19T15:26:03.454Z,98.30
2018-10-19T15:31:07.116Z,97.70
2018-10-19T15:36:11.785Z,97.60
2018-10-19T15:41:15.727Z,98.80
2018-10-19T15:46:20.301Z,97.40
2018-10-19T15:51:23.926Z,99.10
2018-10-19T15:56:27.527Z,99.40
2018-10-19T16:01:31.118Z,99.60
2018-10-19T16:06:34.803Z,97.50
2018-10-19T16:11:39.643Z,97.80
2018-10-19T16:16:43.307Z,98.30
2018-10-19T16:21:47.932Z,99.10
2018-10-19T16:26:52.730Z,98.70
2018-10-19T16:31:56.298Z,98.10
2018-10-19T16:36:59.943Z,98.30
2018-10-19T16:42:03.600Z,98.70
2018-10-19T16:47:08.314Z,98.70
2018-10-19T16:52:12.031Z,99.90
2018-10-19T16:57:15.609Z,98.70
2018-10-19T17:02:19.174Z,99.00
2018-10-19T17:07:23.134Z,99.70
2018-10-19T17:12:26.767Z,99.60
2018-10-19T17:17:30.511Z,99.40
2018-10-19T17:22:34.271Z,99.20
2018-10-19T17:27:38.182Z,99.70
2018-10-19T17:32:42.050Z,99.40
2018-10-19T17:37:45.595Z,99.40
2018-10-19T17:42:55.935Z,99.30
2018-10-19T17:47:59.617Z,99.90
2018-10-19T17:53:03.336Z,99.30
2018-10-19T17:58:07.098Z,99.20
2018-10-19T18:03:15.269Z,99.90
2018-10-19T18:08:18.954Z,99.90
2018-10-19T18:13:22.611Z,99.90
2018-10-19T18:18:26.367Z,99.90
2018-10-19T18:23:30.090Z,99.90
2018-10-19T18:28:33.846Z,99.90
2018-10-19T18:33:37.518Z,99.90
2018-10-19T18:38:41.407Z,99.90
2018-10-19T18:43:46.351Z,99.90
2018-10-19T18:48:50.038Z,99.90
2018-10-19T18:53:53.847Z,99.90
2018-10-19T18:58:59.649Z,99.90
2018-10-19T19:04:04.348Z,99.90
2018-10-19T19:09:10.714Z,99.90
2018-10-19T19:14:15.506Z,99.90
2018-10-19T19:19:21.843Z,99.90
2018-10-19T19:24:31.963Z,99.90
2018-10-19T19:29:37.836Z,99.90
2018-10-19T19:34:42.718Z,99.90
2018-10-19T19:39:47.485Z,99.90
2018-10-19T19:44:51.338Z,99.90
2018-10-19T19:50:02.802Z,99.90
2018-10-19T19:55:07.136Z,99.90
2018-10-19T20:00:12.430Z,99.90
2018-10-19T20:05:18.241Z,99.90
2018-10-19T20:10:22.234Z,99.90
2018-10-19T20:15:25.919Z,99.90
2018-10-19T20:20:30.136Z,99.90
2018-10-19T20:25:33.885Z,99.90
2018-10-19T20:30:37.586Z,99.90
2018-10-19T20:35:41.703Z,99.90
2018-10-19T20:40:45.294Z,99.90
2018-10-19T20:45:49.952Z,99.90
2018-10-19T20:50:53.607Z,99.90
2018-10-19T20:55:58.320Z,99.90
2018-10-19T21:01:02.042Z,99.90
2018-10-19T21:06:05.816Z,99.90
2018-10-19T21:11:09.658Z,99.90
2018-10-19T21:16:15.290Z,99.90
2018-10-19T21:21:18.939Z,99.90
2018-10-19T21:26:22.848Z,99.90
2018-10-19T21:31:26.434Z,99.90
2018-10-19T21:36:31.187Z,99.90
2018-10-19T21:41:35.890Z,99.90
2018-10-19T21:46:39.553Z,99.90
2018-10-19T21:51:44.219Z,99.90
2018-10-19T21:56:47.847Z,99.90
2018-10-19T22:01:51.481Z,99.90
2018-10-19T22:06:55.264Z,99.90
2018-10-19T22:11:58.969Z,99.90
2018-10-19T22:17:06.896Z,99.90
2018-10-19T22:22:13.254Z,99.90
2018-10-19T22:27:17.447Z,99.90
2018-10-19T22:32:22.258Z,99.90
2018-10-19T22:37:25.854Z,99.90
2018-10-19T22:42:29.445Z,99.90
2018-10-19T22:47:33.136Z,99.90
2018-10-19T22:52:36.832Z,99.90
2018-10-19T22:57:40.451Z,99.90
2018-10-19T23:02:44.111Z,99.90
2018-10-19T23:07:49.919Z,99.90
2018-10-19T23:12:53.542Z,99.90
2018-10-19T23:17:57.195Z,99.90
2018-10-19T23:23:00.867Z,99.90
2018-10-19T23:28:04.491Z,99.90
2018-10-19T23:33:08.062Z,99.90
2018-10-19T23:38:11.587Z,99.90
2018-10-19T23:43:15.290Z,99.90
2018-10-19T23:48:18.818Z,99.90
2018-10-19T23:53:22.359Z,99.90
2018-10-19T23:58:25.918Z,99.90
